sensor_id;sensor_type;location;lat;lon;timestamp;P1;durP1;ratioP1;P2;durP2;ratioP2
44955;SDS011;30686;52.512;-1.188;2023-03-01T00:01:54;5.55;;;1.73;;
44955;SDS011;30686;52.512;-1.188;2023-03-01T00:04:20;3.67;;;1.40;;
44955;SDS011;30686;52.512;-1.188;2023-03-01T00:06:46;2.60;;;1.27;;
44955;SDS011;30686;52.512;-1.188;2023-03-01T00:09:13;1.88;;;1.10;;
44955;SDS011;30686;52.512;-1.188;2023-03-01T00:11:40;3.72;;;1.42;;
44955;SDS011;30686;52.512;-1.188;2023-03-01T00:14:07;2.22;;;1.30;;
44955;SDS011;30686;52.512;-1.188;2023-03-01T00:16:37;4.10;;;1.58;;
44955;SDS011;30686;52.512;-1.188;2023-03-01T00:19:08;5.00;;;1.33;;
44955;SDS011;30686;52.512;-1.188;2023-03-01T00:21:35;2.75;;;1.23;;
44955;SDS011;30686;52.512;-1.188;2023-03-01T00:24:04;4.70;;;1.90;;
44955;SDS011;30686;52.512;-1.188;2023-03-01T00:26:33;2.50;;;1.35;;
44955;SDS011;30686;52.512;-1.188;2023-03-01T00:28:59;2.00;;;1.30;;
44955;SDS011;30686;52.512;-1.188;2023-03-01T00:31:27;3.35;;;1.40;;
44955;SDS011;30686;52.512;-1.188;2023-03-01T00:33:58;6.82;;;1.63;;
44955;SDS011;30686;52.512;-1.188;2023-03-01T00:36:31;2.20;;;1.33;;
44955;SDS011;30686;52.512;-1.188;2023-03-01T00:38:57;3.15;;;1.40;;
44955;SDS011;30686;52.512;-1.188;2023-03-01T00:41:24;5.97;;;1.20;;
44955;SDS011;30686;52.512;-1.188;2023-03-01T00:43:51;2.08;;;1.08;;
44955;SDS011;30686;52.512;-1.188;2023-03-01T00:46:19;2.00;;;1.23;;
44955;SDS011;30686;52.512;-1.188;2023-03-01T00:48:46;1.73;;;1.23;;
44955;SDS011;30686;52.512;-1.188;2023-03-01T00:53:39;1.58;;;1.13;;
44955;SDS011;30686;52.512;-1.188;2023-03-01T00:56:09;2.17;;;1.13;;
44955;SDS011;30686;52.512;-1.188;2023-03-01T00:58:35;5.82;;;2.38;;
44955;SDS011;30686;52.512;-1.188;2023-03-01T01:01:12;3.15;;;1.13;;
44955;SDS011;30686;52.512;-1.188;2023-03-01T01:03:43;2.50;;;1.05;;
44955;SDS011;30686;52.512;-1.188;2023-03-01T01:06:17;1.73;;;1.08;;
44955;SDS011;30686;52.512;-1.188;2023-03-01T01:08:44;2.10;;;1.05;;
44955;SDS011;30686;52.512;-1.188;2023-03-01T01:11:10;2.33;;;1.10;;
44955;SDS011;30686;52.512;-1.188;2023-03-01T01:13:40;2.70;;;1.30;;
44955;SDS011;30686;52.512;-1.188;2023-03-01T01:16:07;2.00;;;1.27;;
44955;SDS011;30686;52.512;-1.188;2023-03-01T01:18:33;2.47;;;1.08;;
44955;SDS011;30686;52.512;-1.188;2023-03-01T01:21:03;4.63;;;1.23;;
44955;SDS011;30686;52.512;-1.188;2023-03-01T01:23:30;9.88;;;1.80;;
44955;SDS011;30686;52.512;-1.188;2023-03-01T01:25:56;1.55;;;1.00;;
44955;SDS011;30686;52.512;-1.188;2023-03-01T01:28:22;3.00;;;1.33;;
44955;SDS011;30686;52.512;-1.188;2023-03-01T01:30:48;3.75;;;1.20;;
44955;SDS011;30686;52.512;-1.188;2023-03-01T01:33:14;5.53;;;1.30;;
44955;SDS011;30686;52.512;-1.188;2023-03-01T01:35:41;5.40;;;1.13;;
44955;SDS011;30686;52.512;-1.188;2023-03-01T01:38:07;1.58;;;0.90;;
44955;SDS011;30686;52.512;-1.188;2023-03-01T01:40:33;2.35;;;1.52;;
44955;SDS011;30686;52.512;-1.188;2023-03-01T01:42:59;5.18;;;1.20;;
44955;SDS011;30686;52.512;-1.188;2023-03-01T01:47:53;1.00;;;0.77;;
44955;SDS011;30686;52.512;-1.188;2023-03-01T01:50:21;4.05;;;0.93;;
44955;SDS011;30686;52.512;-1.188;2023-03-01T01:52:48;3.67;;;0.93;;
44955;SDS011;30686;52.512;-1.188;2023-03-01T01:55:25;2.58;;;1.10;;
44955;SDS011;30686;52.512;-1.188;2023-03-01T01:57:53;5.75;;;1.00;;
44955;SDS011;30686;52.512;-1.188;2023-03-01T02:00:24;3.17;;;1.10;;
44955;SDS011;30686;52.512;-1.188;2023-03-01T02:02:51;8.82;;;1.77;;
44955;SDS011;30686;52.512;-1.188;2023-03-01T02:08:05;4.15;;;1.27;;
44955;SDS011;30686;52.512;-1.188;2023-03-01T02:10:33;1.30;;;1.00;;
44955;SDS011;30686;52.512;-1.188;2023-03-01T02:13:00;6.40;;;1.10;;
44955;SDS011;30686;52.512;-1.188;2023-03-01T02:15:28;2.92;;;1.10;;
44955;SDS011;30686;52.512;-1.188;2023-03-01T02:18:00;2.92;;;1.10;;
44955;SDS011;30686;52.512;-1.188;2023-03-01T02:20:34;3.92;;;1.30;;
44955;SDS011;30686;52.512;-1.188;2023-03-01T02:23:03;2.72;;;1.70;;
44955;SDS011;30686;52.512;-1.188;2023-03-01T02:30:45;2.40;;;1.30;;
44955;SDS011;30686;52.512;-1.188;2023-03-01T02:33:31;3.08;;;1.50;;
44955;SDS011;30686;52.512;-1.188;2023-03-01T02:36:01;2.88;;;1.40;;
44955;SDS011;30686;52.512;-1.188;2023-03-01T02:38:29;1.58;;;1.20;;
44955;SDS011;30686;52.512;-1.188;2023-03-01T02:40:58;5.70;;;1.55;;
44955;SDS011;30686;52.512;-1.188;2023-03-01T02:43:25;2.95;;;1.38;;
44955;SDS011;30686;52.512;-1.188;2023-03-01T02:45:56;4.25;;;1.52;;
44955;SDS011;30686;52.512;-1.188;2023-03-01T02:48:22;5.07;;;2.08;;
44955;SDS011;30686;52.512;-1.188;2023-03-01T02:51:05;3.05;;;1.50;;
44955;SDS011;30686;52.512;-1.188;2023-03-01T02:53:46;3.97;;;1.70;;
44955;SDS011;30686;52.512;-1.188;2023-03-01T02:56:14;6.47;;;1.85;;
44955;SDS011;30686;52.512;-1.188;2023-03-01T02:58:41;5.10;;;1.33;;
44955;SDS011;30686;52.512;-1.188;2023-03-01T03:03:48;4.38;;;1.55;;
44955;SDS011;30686;52.512;-1.188;2023-03-01T03:06:14;8.10;;;1.75;;
44955;SDS011;30686;52.512;-1.188;2023-03-01T03:08:41;7.07;;;1.75;;
44955;SDS011;30686;52.512;-1.188;2023-03-01T03:11:07;5.00;;;1.50;;
44955;SDS011;30686;52.512;-1.188;2023-03-01T03:13:33;3.25;;;1.40;;
44955;SDS011;30686;52.512;-1.188;2023-03-01T03:15:59;3.15;;;1.42;;
44955;SDS011;30686;52.512;-1.188;2023-03-01T03:18:26;3.80;;;1.38;;
44955;SDS011;30686;52.512;-1.188;2023-03-01T03:20:52;3.85;;;1.40;;
44955;SDS011;30686;52.512;-1.188;2023-03-01T03:23:19;1.73;;;1.13;;
44955;SDS011;30686;52.512;-1.188;2023-03-01T03:25:47;4.47;;;1.38;;
44955;SDS011;30686;52.512;-1.188;2023-03-01T03:28:14;6.50;;;1.35;;
44955;SDS011;30686;52.512;-1.188;2023-03-01T03:30:41;4.15;;;1.30;;
44955;SDS011;30686;52.512;-1.188;2023-03-01T03:33:08;1.48;;;1.00;;
44955;SDS011;30686;52.512;-1.188;2023-03-01T03:35:42;6.07;;;1.35;;
44955;SDS011;30686;52.512;-1.188;2023-03-01T03:38:10;7.30;;;2.47;;
44955;SDS011;30686;52.512;-1.188;2023-03-01T03:40:51;3.05;;;1.30;;
44955;SDS011;30686;52.512;-1.188;2023-03-01T03:43:21;3.45;;;1.27;;
44955;SDS011;30686;52.512;-1.188;2023-03-01T03:45:48;3.88;;;1.08;;
44955;SDS011;30686;52.512;-1.188;2023-03-01T03:48:15;2.95;;;1.55;;
44955;SDS011;30686;52.512;-1.188;2023-03-01T03:50:46;4.30;;;1.20;;
44955;SDS011;30686;52.512;-1.188;2023-03-01T03:53:12;5.00;;;1.17;;
44955;SDS011;30686;52.512;-1.188;2023-03-01T03:55:39;4.85;;;1.08;;
44955;SDS011;30686;52.512;-1.188;2023-03-01T03:58:09;2.10;;;1.10;;
44955;SDS011;30686;52.512;-1.188;2023-03-01T04:00:39;2.38;;;1.35;;
44955;SDS011;30686;52.512;-1.188;2023-03-01T04:03:06;3.80;;;1.30;;
44955;SDS011;30686;52.512;-1.188;2023-03-01T04:05:32;3.63;;;1.30;;
44955;SDS011;30686;52.512;-1.188;2023-03-01T04:07:58;1.73;;;1.23;;
44955;SDS011;30686;52.512;-1.188;2023-03-01T04:10:33;2.60;;;1.30;;
44955;SDS011;30686;52.512;-1.188;2023-03-01T04:12:59;2.78;;;1.63;;
44955;SDS011;30686;52.512;-1.188;2023-03-01T04:15:26;4.07;;;1.35;;
44955;SDS011;30686;52.512;-1.188;2023-03-01T04:17:55;1.83;;;1.00;;
44955;SDS011;30686;52.512;-1.188;2023-03-01T04:20:25;2.67;;;1.35;;
44955;SDS011;30686;52.512;-1.188;2023-03-01T04:22:52;3.38;;;1.20;;
44955;SDS011;30686;52.512;-1.188;2023-03-01T04:25:22;5.20;;;1.35;;
44955;SDS011;30686;52.512;-1.188;2023-03-01T04:27:48;2.78;;;1.25;;
44955;SDS011;30686;52.512;-1.188;2023-03-01T04:30:16;3.13;;;1.30;;
44955;SDS011;30686;52.512;-1.188;2023-03-01T04:32:42;3.22;;;1.48;;
44955;SDS011;30686;52.512;-1.188;2023-03-01T04:35:08;2.63;;;1.30;;
44955;SDS011;30686;52.512;-1.188;2023-03-01T04:37:37;2.38;;;1.10;;
44955;SDS011;30686;52.512;-1.188;2023-03-01T04:40:03;4.38;;;1.27;;
44955;SDS011;30686;52.512;-1.188;2023-03-01T04:42:43;2.08;;;1.25;;
44955;SDS011;30686;52.512;-1.188;2023-03-01T04:45:10;3.72;;;1.38;;
44955;SDS011;30686;52.512;-1.188;2023-03-01T04:47:41;4.03;;;1.38;;
44955;SDS011;30686;52.512;-1.188;2023-03-01T04:50:10;6.45;;;1.40;;
44955;SDS011;30686;52.512;-1.188;2023-03-01T04:52:37;2.88;;;1.45;;
44955;SDS011;30686;52.512;-1.188;2023-03-01T04:55:03;3.92;;;1.60;;
44955;SDS011;30686;52.512;-1.188;2023-03-01T04:57:29;3.95;;;1.20;;
44955;SDS011;30686;52.512;-1.188;2023-03-01T04:59:56;3.05;;;1.45;;
44955;SDS011;30686;52.512;-1.188;2023-03-01T05:02:22;4.78;;;1.58;;
44955;SDS011;30686;52.512;-1.188;2023-03-01T05:04:49;2.33;;;1.38;;
44955;SDS011;30686;52.512;-1.188;2023-03-01T05:07:15;4.93;;;1.67;;
44955;SDS011;30686;52.512;-1.188;2023-03-01T05:09:47;4.78;;;1.85;;
44955;SDS011;30686;52.512;-1.188;2023-03-01T05:12:14;6.05;;;2.05;;
44955;SDS011;30686;52.512;-1.188;2023-03-01T05:14:41;4.20;;;1.67;;
44955;SDS011;30686;52.512;-1.188;2023-03-01T05:17:08;3.17;;;1.70;;
44955;SDS011;30686;52.512;-1.188;2023-03-01T05:19:34;2.72;;;1.67;;
44955;SDS011;30686;52.512;-1.188;2023-03-01T05:22:00;6.75;;;1.50;;
44955;SDS011;30686;52.512;-1.188;2023-03-01T05:24:28;3.30;;;1.83;;
44955;SDS011;30686;52.512;-1.188;2023-03-01T05:26:54;4.88;;;1.70;;
44955;SDS011;30686;52.512;-1.188;2023-03-01T05:29:21;3.42;;;1.70;;
44955;SDS011;30686;52.512;-1.188;2023-03-01T05:31:53;4.35;;;1.83;;
44955;SDS011;30686;52.512;-1.188;2023-03-01T05:34:27;7.80;;;1.67;;
44955;SDS011;30686;52.512;-1.188;2023-03-01T05:36:54;4.55;;;1.90;;
44955;SDS011;30686;52.512;-1.188;2023-03-01T05:39:21;5.53;;;1.50;;
44955;SDS011;30686;52.512;-1.188;2023-03-01T05:41:48;4.75;;;1.80;;
44955;SDS011;30686;52.512;-1.188;2023-03-01T05:44:14;4.15;;;1.58;;
44955;SDS011;30686;52.512;-1.188;2023-03-01T05:46:41;2.10;;;1.42;;
44955;SDS011;30686;52.512;-1.188;2023-03-01T05:49:07;2.58;;;1.40;;
44955;SDS011;30686;52.512;-1.188;2023-03-01T05:51:33;5.35;;;1.80;;
44955;SDS011;30686;52.512;-1.188;2023-03-01T05:53:59;2.78;;;1.70;;
44955;SDS011;30686;52.512;-1.188;2023-03-01T05:56:26;6.03;;;1.58;;
44955;SDS011;30686;52.512;-1.188;2023-03-01T05:58:53;3.33;;;1.48;;
44955;SDS011;30686;52.512;-1.188;2023-03-01T06:01:19;2.72;;;1.40;;
44955;SDS011;30686;52.512;-1.188;2023-03-01T06:03:46;4.40;;;1.38;;
44955;SDS011;30686;52.512;-1.188;2023-03-01T06:06:12;3.58;;;1.45;;
44955;SDS011;30686;52.512;-1.188;2023-03-01T06:08:38;3.30;;;1.23;;
44955;SDS011;30686;52.512;-1.188;2023-03-01T06:11:04;5.80;;;1.52;;
44955;SDS011;30686;52.512;-1.188;2023-03-01T06:13:32;6.53;;;2.17;;
44955;SDS011;30686;52.512;-1.188;2023-03-01T06:15:58;3.03;;;1.40;;
44955;SDS011;30686;52.512;-1.188;2023-03-01T06:18:24;2.35;;;1.30;;
44955;SDS011;30686;52.512;-1.188;2023-03-01T06:20:54;8.80;;;1.33;;
44955;SDS011;30686;52.512;-1.188;2023-03-01T06:23:21;4.65;;;1.42;;
44955;SDS011;30686;52.512;-1.188;2023-03-01T06:25:47;2.38;;;1.08;;
44955;SDS011;30686;52.512;-1.188;2023-03-01T06:28:13;2.90;;;1.48;;
44955;SDS011;30686;52.512;-1.188;2023-03-01T06:30:40;3.40;;;1.38;;
44955;SDS011;30686;52.512;-1.188;2023-03-01T06:33:06;5.70;;;1.38;;
44955;SDS011;30686;52.512;-1.188;2023-03-01T06:35:33;2.45;;;1.25;;
44955;SDS011;30686;52.512;-1.188;2023-03-01T06:38:02;3.13;;;1.30;;
44955;SDS011;30686;52.512;-1.188;2023-03-01T06:40:29;2.60;;;1.30;;
44955;SDS011;30686;52.512;-1.188;2023-03-01T06:42:56;4.10;;;1.60;;
44955;SDS011;30686;52.512;-1.188;2023-03-01T06:45:22;3.20;;;1.27;;
44955;SDS011;30686;52.512;-1.188;2023-03-01T06:47:49;2.90;;;1.48;;
44955;SDS011;30686;52.512;-1.188;2023-03-01T06:50:16;4.90;;;1.52;;
44955;SDS011;30686;52.512;-1.188;2023-03-01T06:52:43;5.25;;;1.17;;
44955;SDS011;30686;52.512;-1.188;2023-03-01T06:55:10;1.92;;;1.20;;
44955;SDS011;30686;52.512;-1.188;2023-03-01T06:57:36;3.65;;;1.10;;
44955;SDS011;30686;52.512;-1.188;2023-03-01T07:00:03;4.35;;;1.60;;
44955;SDS011;30686;52.512;-1.188;2023-03-01T07:02:29;3.90;;;1.38;;
44955;SDS011;30686;52.512;-1.188;2023-03-01T07:04:56;7.00;;;1.67;;
44955;SDS011;30686;52.512;-1.188;2023-03-01T07:07:24;4.05;;;1.70;;
44955;SDS011;30686;52.512;-1.188;2023-03-01T07:09:51;5.60;;;1.92;;
44955;SDS011;30686;52.512;-1.188;2023-03-01T07:12:20;4.18;;;1.75;;
44955;SDS011;30686;52.512;-1.188;2023-03-01T07:14:46;8.88;;;1.77;;
44955;SDS011;30686;52.512;-1.188;2023-03-01T07:17:13;4.75;;;1.83;;
44955;SDS011;30686;52.512;-1.188;2023-03-01T07:19:39;2.65;;;1.50;;
44955;SDS011;30686;52.512;-1.188;2023-03-01T07:22:06;11.07;;;2.33;;
44955;SDS011;30686;52.512;-1.188;2023-03-01T07:24:35;5.10;;;1.70;;
44955;SDS011;30686;52.512;-1.188;2023-03-01T07:27:01;6.72;;;1.65;;
44955;SDS011;30686;52.512;-1.188;2023-03-01T07:29:27;5.55;;;2.00;;
44955;SDS011;30686;52.512;-1.188;2023-03-01T07:31:54;7.85;;;2.95;;
44955;SDS011;30686;52.512;-1.188;2023-03-01T07:34:20;6.72;;;1.83;;
44955;SDS011;30686;52.512;-1.188;2023-03-01T07:36:46;4.45;;;1.70;;
44955;SDS011;30686;52.512;-1.188;2023-03-01T07:39:12;7.97;;;2.10;;
44955;SDS011;30686;52.512;-1.188;2023-03-01T07:41:39;8.98;;;1.83;;
44955;SDS011;30686;52.512;-1.188;2023-03-01T07:44:05;5.22;;;2.28;;
44955;SDS011;30686;52.512;-1.188;2023-03-01T07:46:31;4.18;;;2.10;;
44955;SDS011;30686;52.512;-1.188;2023-03-01T07:48:57;5.93;;;2.50;;
44955;SDS011;30686;52.512;-1.188;2023-03-01T07:51:24;13.98;;;2.65;;
44955;SDS011;30686;52.512;-1.188;2023-03-01T07:53:50;5.43;;;2.22;;
44955;SDS011;30686;52.512;-1.188;2023-03-01T07:56:16;6.32;;;2.08;;
44955;SDS011;30686;52.512;-1.188;2023-03-01T07:58:44;6.20;;;2.60;;
44955;SDS011;30686;52.512;-1.188;2023-03-01T08:01:11;5.38;;;2.55;;
44955;SDS011;30686;52.512;-1.188;2023-03-01T08:03:41;9.02;;;2.33;;
44955;SDS011;30686;52.512;-1.188;2023-03-01T08:06:12;7.82;;;3.10;;
44955;SDS011;30686;52.512;-1.188;2023-03-01T08:08:38;7.20;;;2.85;;
44955;SDS011;30686;52.512;-1.188;2023-03-01T08:11:05;11.73;;;4.47;;
44955;SDS011;30686;52.512;-1.188;2023-03-01T08:13:32;8.57;;;2.97;;
44955;SDS011;30686;52.512;-1.188;2023-03-01T08:16:02;12.05;;;3.42;;
44955;SDS011;30686;52.512;-1.188;2023-03-01T08:18:29;7.55;;;3.72;;
44955;SDS011;30686;52.512;-1.188;2023-03-01T08:20:55;8.93;;;4.25;;
44955;SDS011;30686;52.512;-1.188;2023-03-01T08:23:21;12.18;;;4.63;;
44955;SDS011;30686;52.512;-1.188;2023-03-01T08:25:48;10.30;;;3.97;;
44955;SDS011;30686;52.512;-1.188;2023-03-01T08:28:14;8.95;;;3.22;;
44955;SDS011;30686;52.512;-1.188;2023-03-01T08:30:40;9.85;;;4.35;;
44955;SDS011;30686;52.512;-1.188;2023-03-01T08:33:06;7.53;;;3.72;;
44955;SDS011;30686;52.512;-1.188;2023-03-01T08:35:32;8.75;;;4.45;;
44955;SDS011;30686;52.512;-1.188;2023-03-01T08:37:59;7.57;;;3.90;;
44955;SDS011;30686;52.512;-1.188;2023-03-01T08:40:25;11.80;;;4.30;;
44955;SDS011;30686;52.512;-1.188;2023-03-01T08:42:51;9.60;;;3.67;;
44955;SDS011;30686;52.512;-1.188;2023-03-01T08:45:17;8.93;;;3.55;;
44955;SDS011;30686;52.512;-1.188;2023-03-01T08:47:44;9.57;;;4.35;;
44955;SDS011;30686;52.512;-1.188;2023-03-01T08:50:10;7.47;;;4.03;;
44955;SDS011;30686;52.512;-1.188;2023-03-01T08:52:36;8.52;;;4.28;;
44955;SDS011;30686;52.512;-1.188;2023-03-01T08:55:03;8.52;;;4.10;;
44955;SDS011;30686;52.512;-1.188;2023-03-01T08:57:29;8.10;;;3.58;;
44955;SDS011;30686;52.512;-1.188;2023-03-01T08:59:56;7.05;;;3.70;;
44955;SDS011;30686;52.512;-1.188;2023-03-01T09:02:22;8.65;;;4.00;;
44955;SDS011;30686;52.512;-1.188;2023-03-01T09:04:48;8.38;;;3.53;;
44955;SDS011;30686;52.512;-1.188;2023-03-01T09:07:14;9.27;;;3.20;;
44955;SDS011;30686;52.512;-1.188;2023-03-01T09:09:41;6.38;;;3.38;;
44955;SDS011;30686;52.512;-1.188;2023-03-01T09:12:07;10.20;;;3.65;;
44955;SDS011;30686;52.512;-1.188;2023-03-01T09:14:33;8.27;;;3.63;;
44955;SDS011;30686;52.512;-1.188;2023-03-01T09:16:59;8.55;;;2.67;;
44955;SDS011;30686;52.512;-1.188;2023-03-01T09:19:28;6.80;;;3.50;;
44955;SDS011;30686;52.512;-1.188;2023-03-01T09:21:54;6.28;;;3.30;;
44955;SDS011;30686;52.512;-1.188;2023-03-01T09:24:22;9.07;;;3.95;;
44955;SDS011;30686;52.512;-1.188;2023-03-01T09:26:48;8.90;;;4.28;;
44955;SDS011;30686;52.512;-1.188;2023-03-01T09:29:15;7.07;;;3.65;;
44955;SDS011;30686;52.512;-1.188;2023-03-01T09:31:42;6.32;;;3.97;;
44955;SDS011;30686;52.512;-1.188;2023-03-01T09:34:11;10.57;;;3.55;;
44955;SDS011;30686;52.512;-1.188;2023-03-01T09:36:41;5.40;;;3.00;;
44955;SDS011;30686;52.512;-1.188;2023-03-01T09:39:07;9.45;;;3.55;;
44955;SDS011;30686;52.512;-1.188;2023-03-01T09:44:18;5.30;;;3.90;;
44955;SDS011;30686;52.512;-1.188;2023-03-01T09:46:47;8.00;;;3.50;;
44955;SDS011;30686;52.512;-1.188;2023-03-01T09:51:43;6.35;;;2.35;;
44955;SDS011;30686;52.512;-1.188;2023-03-01T09:54:12;7.13;;;2.50;;
44955;SDS011;30686;52.512;-1.188;2023-03-01T09:56:46;7.22;;;2.65;;
44955;SDS011;30686;52.512;-1.188;2023-03-01T10:04:23;9.25;;;2.78;;
44955;SDS011;30686;52.512;-1.188;2023-03-01T10:07:17;8.27;;;2.92;;
44955;SDS011;30686;52.512;-1.188;2023-03-01T10:09:40;8.23;;;1.90;;
44955;SDS011;30686;52.512;-1.188;2023-03-01T10:18:04;4.57;;;1.75;;
44955;SDS011;30686;52.512;-1.188;2023-03-01T10:20:46;3.08;;;1.83;;
44955;SDS011;30686;52.512;-1.188;2023-03-01T10:23:15;5.80;;;2.35;;
44955;SDS011;30686;52.512;-1.188;2023-03-01T10:25:53;3.25;;;1.90;;
44955;SDS011;30686;52.512;-1.188;2023-03-01T10:28:29;6.72;;;2.00;;
44955;SDS011;30686;52.512;-1.188;2023-03-01T10:30:57;5.72;;;1.83;;
44955;SDS011;30686;52.512;-1.188;2023-03-01T10:33:24;6.40;;;1.83;;
44955;SDS011;30686;52.512;-1.188;2023-03-01T10:35:52;4.90;;;1.95;;
44955;SDS011;30686;52.512;-1.188;2023-03-01T10:38:20;5.85;;;2.22;;
44955;SDS011;30686;52.512;-1.188;2023-03-01T10:40:51;3.83;;;1.92;;
44955;SDS011;30686;52.512;-1.188;2023-03-01T10:43:17;4.90;;;1.70;;
44955;SDS011;30686;52.512;-1.188;2023-03-01T10:45:44;3.65;;;1.85;;
44955;SDS011;30686;52.512;-1.188;2023-03-01T10:48:12;7.70;;;2.03;;
44955;SDS011;30686;52.512;-1.188;2023-03-01T10:50:40;7.57;;;2.60;;
44955;SDS011;30686;52.512;-1.188;2023-03-01T10:53:23;3.95;;;2.05;;
44955;SDS011;30686;52.512;-1.188;2023-03-01T10:58:57;7.15;;;2.30;;
44955;SDS011;30686;52.512;-1.188;2023-03-01T11:01:25;7.50;;;3.03;;
44955;SDS011;30686;52.512;-1.188;2023-03-01T11:06:34;4.38;;;2.15;;
44955;SDS011;30686;52.512;-1.188;2023-03-01T11:09:21;5.72;;;1.80;;
44955;SDS011;30686;52.512;-1.188;2023-03-01T11:11:51;6.15;;;2.25;;
44955;SDS011;30686;52.512;-1.188;2023-03-01T11:14:20;4.10;;;1.70;;
44955;SDS011;30686;52.512;-1.188;2023-03-01T11:16:48;6.88;;;1.70;;
44955;SDS011;30686;52.512;-1.188;2023-03-01T11:19:16;6.38;;;2.10;;
44955;SDS011;30686;52.512;-1.188;2023-03-01T11:27:07;6.68;;;2.72;;
44955;SDS011;30686;52.512;-1.188;2023-03-01T11:30:12;6.00;;;2.45;;
44955;SDS011;30686;52.512;-1.188;2023-03-01T11:32:28;7.90;;;2.40;;
44955;SDS011;30686;52.512;-1.188;2023-03-01T11:44:59;4.32;;;1.80;;
44955;SDS011;30686;52.512;-1.188;2023-03-01T11:50:14;6.53;;;2.47;;
44955;SDS011;30686;52.512;-1.188;2023-03-01T11:58:05;5.97;;;2.30;;
44955;SDS011;30686;52.512;-1.188;2023-03-01T12:06:05;5.10;;;2.10;;
44955;SDS011;30686;52.512;-1.188;2023-03-01T12:14:01;8.88;;;2.78;;
44955;SDS011;30686;52.512;-1.188;2023-03-01T12:19:19;5.15;;;1.80;;
44955;SDS011;30686;52.512;-1.188;2023-03-01T12:24:39;4.38;;;1.83;;
44955;SDS011;30686;52.512;-1.188;2023-03-01T12:29:46;4.45;;;1.45;;
44955;SDS011;30686;52.512;-1.188;2023-03-01T12:37:39;1.55;;;1.15;;
44955;SDS011;30686;52.512;-1.188;2023-03-01T12:52:59;4.32;;;0.80;;
44955;SDS011;30686;52.512;-1.188;2023-03-01T12:55:29;2.72;;;0.98;;
44955;SDS011;30686;52.512;-1.188;2023-03-01T12:58:00;3.13;;;1.10;;
44955;SDS011;30686;52.512;-1.188;2023-03-01T13:06:16;4.03;;;1.52;;
44955;SDS011;30686;52.512;-1.188;2023-03-01T13:08:49;3.35;;;1.30;;
44955;SDS011;30686;52.512;-1.188;2023-03-01T13:13:45;2.03;;;0.98;;
44955;SDS011;30686;52.512;-1.188;2023-03-01T13:21:42;3.15;;;1.50;;
44955;SDS011;30686;52.512;-1.188;2023-03-01T13:29:51;4.15;;;1.30;;
44955;SDS011;30686;52.512;-1.188;2023-03-01T13:32:35;7.47;;;1.75;;
44955;SDS011;30686;52.512;-1.188;2023-03-01T13:37:40;3.67;;;1.10;;
44955;SDS011;30686;52.512;-1.188;2023-03-01T13:42:49;3.08;;;1.13;;
44955;SDS011;30686;52.512;-1.188;2023-03-01T13:45:17;6.40;;;1.30;;
44955;SDS011;30686;52.512;-1.188;2023-03-01T13:47:45;5.50;;;1.30;;
44955;SDS011;30686;52.512;-1.188;2023-03-01T13:50:25;8.00;;;2.45;;
44955;SDS011;30686;52.512;-1.188;2023-03-01T13:52:59;6.40;;;1.50;;
44955;SDS011;30686;52.512;-1.188;2023-03-01T13:55:28;3.20;;;1.08;;
44955;SDS011;30686;52.512;-1.188;2023-03-01T13:57:57;3.72;;;2.10;;
44955;SDS011;30686;52.512;-1.188;2023-03-01T14:03:03;3.05;;;1.23;;
44955;SDS011;30686;52.512;-1.188;2023-03-01T14:05:31;7.20;;;1.58;;
44955;SDS011;30686;52.512;-1.188;2023-03-01T14:07:58;6.80;;;1.60;;
44955;SDS011;30686;52.512;-1.188;2023-03-01T14:10:29;7.15;;;1.50;;
44955;SDS011;30686;52.512;-1.188;2023-03-01T14:13:01;4.72;;;1.00;;
44955;SDS011;30686;52.512;-1.188;2023-03-01T14:18:35;6.68;;;1.80;;
44955;SDS011;30686;52.512;-1.188;2023-03-01T14:20:50;4.93;;;1.50;;
44955;SDS011;30686;52.512;-1.188;2023-03-01T14:23:18;4.78;;;1.75;;
44955;SDS011;30686;52.512;-1.188;2023-03-01T14:25:51;2.78;;;1.38;;
44955;SDS011;30686;52.512;-1.188;2023-03-01T14:30:46;8.32;;;1.20;;
44955;SDS011;30686;52.512;-1.188;2023-03-01T14:33:23;4.28;;;1.30;;
44955;SDS011;30686;52.512;-1.188;2023-03-01T14:35:54;4.90;;;1.10;;
44955;SDS011;30686;52.512;-1.188;2023-03-01T14:38:21;7.47;;;1.48;;
44955;SDS011;30686;52.512;-1.188;2023-03-01T14:40:47;1.83;;;0.95;;
44955;SDS011;30686;52.512;-1.188;2023-03-01T14:43:17;2.13;;;0.82;;
44955;SDS011;30686;52.512;-1.188;2023-03-01T14:45:47;4.15;;;1.25;;
44955;SDS011;30686;52.512;-1.188;2023-03-01T14:48:14;4.57;;;1.17;;
44955;SDS011;30686;52.512;-1.188;2023-03-01T14:50:41;6.10;;;1.15;;
44955;SDS011;30686;52.512;-1.188;2023-03-01T14:53:12;4.93;;;1.73;;
44955;SDS011;30686;52.512;-1.188;2023-03-01T14:55:41;4.05;;;1.80;;
44955;SDS011;30686;52.512;-1.188;2023-03-01T14:58:13;2.88;;;1.05;;
44955;SDS011;30686;52.512;-1.188;2023-03-01T15:00:43;4.55;;;1.35;;
44955;SDS011;30686;52.512;-1.188;2023-03-01T15:03:13;7.78;;;1.73;;
44955;SDS011;30686;52.512;-1.188;2023-03-01T15:05:41;6.40;;;0.90;;
44955;SDS011;30686;52.512;-1.188;2023-03-01T15:08:08;3.47;;;1.05;;
44955;SDS011;30686;52.512;-1.188;2023-03-01T15:10:54;2.78;;;1.00;;
44955;SDS011;30686;52.512;-1.188;2023-03-01T15:13:22;5.18;;;1.50;;
44955;SDS011;30686;52.512;-1.188;2023-03-01T15:15:49;1.50;;;1.00;;
44955;SDS011;30686;52.512;-1.188;2023-03-01T15:18:25;2.58;;;1.10;;
44955;SDS011;30686;52.512;-1.188;2023-03-01T15:20:52;1.92;;;0.90;;
44955;SDS011;30686;52.512;-1.188;2023-03-01T15:23:21;3.33;;;1.23;;
44955;SDS011;30686;52.512;-1.188;2023-03-01T15:25:48;4.00;;;1.27;;
44955;SDS011;30686;52.512;-1.188;2023-03-01T15:28:25;5.20;;;1.23;;
44955;SDS011;30686;52.512;-1.188;2023-03-01T15:30:53;7.05;;;1.13;;
44955;SDS011;30686;52.512;-1.188;2023-03-01T15:33:27;5.07;;;1.13;;
44955;SDS011;30686;52.512;-1.188;2023-03-01T15:35:57;9.88;;;1.52;;
44955;SDS011;30686;52.512;-1.188;2023-03-01T15:38:28;5.03;;;1.27;;
44955;SDS011;30686;52.512;-1.188;2023-03-01T15:40:56;5.35;;;2.50;;
44955;SDS011;30686;52.512;-1.188;2023-03-01T15:43:40;7.35;;;1.30;;
44955;SDS011;30686;52.512;-1.188;2023-03-01T15:46:13;5.07;;;1.83;;
44955;SDS011;30686;52.512;-1.188;2023-03-01T15:48:44;3.15;;;1.23;;
44955;SDS011;30686;52.512;-1.188;2023-03-01T15:51:10;6.13;;;1.40;;
44955;SDS011;30686;52.512;-1.188;2023-03-01T15:53:37;3.63;;;1.42;;
44955;SDS011;30686;52.512;-1.188;2023-03-01T15:56:03;5.38;;;1.10;;
44955;SDS011;30686;52.512;-1.188;2023-03-01T15:58:32;4.80;;;1.58;;
44955;SDS011;30686;52.512;-1.188;2023-03-01T16:00:59;2.05;;;1.33;;
44955;SDS011;30686;52.512;-1.188;2023-03-01T16:03:25;4.18;;;1.20;;
44955;SDS011;30686;52.512;-1.188;2023-03-01T16:05:51;7.20;;;1.67;;
44955;SDS011;30686;52.512;-1.188;2023-03-01T16:08:18;9.43;;;1.58;;
44955;SDS011;30686;52.512;-1.188;2023-03-01T16:10:45;6.72;;;1.85;;
44955;SDS011;30686;52.512;-1.188;2023-03-01T16:13:13;3.67;;;1.00;;
44955;SDS011;30686;52.512;-1.188;2023-03-01T16:15:39;2.00;;;0.95;;
44955;SDS011;30686;52.512;-1.188;2023-03-01T16:18:06;1.95;;;0.93;;
44955;SDS011;30686;52.512;-1.188;2023-03-01T16:20:35;5.05;;;1.33;;
44955;SDS011;30686;52.512;-1.188;2023-03-01T16:23:02;4.68;;;1.02;;
44955;SDS011;30686;52.512;-1.188;2023-03-01T16:25:31;5.68;;;1.17;;
44955;SDS011;30686;52.512;-1.188;2023-03-01T16:27:58;3.63;;;1.30;;
44955;SDS011;30686;52.512;-1.188;2023-03-01T16:30:29;2.53;;;1.13;;
44955;SDS011;30686;52.512;-1.188;2023-03-01T16:32:55;4.38;;;1.00;;
44955;SDS011;30686;52.512;-1.188;2023-03-01T16:35:21;3.05;;;0.90;;
44955;SDS011;30686;52.512;-1.188;2023-03-01T16:37:48;3.80;;;1.15;;
44955;SDS011;30686;52.512;-1.188;2023-03-01T16:42:46;2.45;;;0.82;;
44955;SDS011;30686;52.512;-1.188;2023-03-01T16:45:12;5.55;;;1.40;;
44955;SDS011;30686;52.512;-1.188;2023-03-01T16:47:39;2.20;;;1.10;;
44955;SDS011;30686;52.512;-1.188;2023-03-01T16:50:06;4.75;;;1.40;;
44955;SDS011;30686;52.512;-1.188;2023-03-01T16:52:33;2.63;;;0.98;;
44955;SDS011;30686;52.512;-1.188;2023-03-01T16:54:59;5.25;;;1.45;;